Time;durP1;ratioP1;P1;durP2;ratioP2;P2;SDS_P1;SDS_P2;PMS_P1;PMS_P2;Temp;Humidity;BMP_temperature;BMP_pressure;BME280_temperature;BME280_humidity;BME280_pressure;Samples;Min_cycle;Max_cycle;Signal;HPM_P1;HPM_P2
2021/04/20 00:03:25;;;;;;;86.43;46.93;;;;;5.40;101350.00;;;;10459355;28;20534;-73
2021/04/20 00:08:27;;;;;;;78.93;45.53;;;;;5.40;101351.00;;;;10476239;28;20213;-73
2021/04/20 00:13:28;;;;;;;79.13;48.03;;;;;5.40;101345.00;;;;10475942;28;20205;-73
2021/04/20 00:18:30;;;;;;;86.67;51.93;;;;;5.30;101355.00;;;;10494088;28;20197;-73
2021/04/20 00:23:31;;;;;;;65.60;42.50;;;;;5.10;101337.00;;;;10442407;28;20541;-73
2021/04/20 00:28:35;;;;;;;76.13;42.30;;;;;5.00;101339.00;;;;10474271;28;20206;-73
2021/04/20 00:33:41;;;;;;;65.03;40.07;;;;;4.90;101324.00;;;;10481154;28;20209;-73
2021/04/20 00:38:43;;;;;;;63.73;40.93;;;;;4.80;101327.00;;;;10441772;28;20833;-73
2021/04/20 00:43:47;;;;;;;64.27;40.83;;;;;4.70;101327.00;;;;10457216;28;20228;-73
2021/04/20 00:48:48;;;;;;;75.13;43.53;;;;;4.60;101328.00;;;;10475540;28;20317;-73
2021/04/20 00:53:50;;;;;;;67.40;42.17;;;;;4.50;101326.00;;;;10474568;28;20197;-73
2021/04/20 00:58:51;;;;;;;79.03;45.50;;;;;4.50;101317.00;;;;10490479;28;20197;-73
2021/04/20 01:03:52;;;;;;;69.73;43.90;;;;;4.50;101323.00;;;;10457887;28;20228;-73
2021/04/20 01:08:54;;;;;;;77.67;45.33;;;;;4.40;101313.00;;;;10474597;28;20747;-73
2021/04/20 01:13:58;;;;;;;77.23;45.20;;;;;4.40;101295.00;;;;10490589;28;20664;-73
2021/04/20 01:19:01;;;;;;;74.43;45.33;;;;;4.30;101308.00;;;;10492406;28;20591;-73
2021/04/20 01:24:08;;;;;;;79.90;48.07;;;;;4.30;101301.00;;;;10474769;28;20197;-73
2021/04/20 01:29:11;;;;;;;76.50;46.33;;;;;4.40;101306.00;;;;10481362;28;20214;-73
2021/04/20 01:34:13;;;;;;;76.33;44.73;;;;;4.30;101301.00;;;;10450104;28;20672;-73
2021/04/20 01:39:14;;;;;;;76.03;42.07;;;;;4.20;101299.00;;;;10432607;28;20205;-73
2021/04/20 01:44:16;;;;;;;70.97;39.93;;;;;4.10;101292.00;;;;10448974;28;20205;-73
2021/04/20 01:49:17;;;;;;;73.17;42.87;;;;;4.00;101286.00;;;;10498336;28;20608;-73
2021/04/20 01:54:19;;;;;;;73.37;43.90;;;;;4.00;101284.00;;;;10480886;28;20623;-73
2021/04/20 01:59:21;;;;;;;98.37;51.97;;;;;4.00;101284.00;;;;10464573;28;20233;-73
2021/04/20 02:04:23;;;;;;;98.57;52.20;;;;;4.00;101281.00;;;;10463899;28;20193;-73
2021/04/20 02:09:24;;;;;;;103.60;54.23;;;;;4.10;101292.00;;;;10464828;28;20688;-73
2021/04/20 02:14:26;;;;;;;76.30;45.87;;;;;4.10;101289.00;;;;10463435;28;20687;-73
2021/04/20 02:19:29;;;;;;;83.03;46.63;;;;;4.00;101288.00;;;;10464092;28;20197;-73
2021/04/20 02:24:30;;;;;;;72.03;42.77;;;;;3.90;101280.00;;;;10496281;28;20251;-73
2021/04/20 02:29:33;;;;;;;72.90;44.83;;;;;3.80;101277.00;;;;10479703;28;20220;-73
2021/04/20 02:34:34;;;;;;;77.27;46.33;;;;;3.70;101282.00;;;;10463005;28;20757;-73
2021/04/20 02:39:36;;;;;;;82.17;47.10;;;;;3.70;101283.00;;;;10463891;28;20255;-73
2021/04/20 02:44:38;;;;;;;84.07;45.20;;;;;3.70;101274.00;;;;10463040;28;20208;-73
2021/04/20 02:49:39;;;;;;;72.40;43.97;;;;;3.70;101262.00;;;;10479466;28;20832;-73
2021/04/20 02:54:45;;;;;;;84.73;47.70;;;;;3.60;101270.00;;;;10449088;28;20647;-73
2021/04/20 02:59:47;;;;;;;76.53;44.27;;;;;3.60;101263.00;;;;10495661;28;20201;-73
2021/04/20 03:04:51;;;;;;;78.40;43.80;;;;;3.50;101274.00;;;;10511817;28;20209;-73
2021/04/20 03:09:55;;;;;;;76.60;44.70;;;;;3.40;101260.00;;;;10444861;28;20221;-73
2021/04/20 03:14:59;;;;;;;76.13;41.37;;;;;3.30;101260.00;;;;10461133;28;20193;-73
2021/04/20 03:20:01;;;;;;;79.83;45.87;;;;;3.30;101250.00;;;;10494886;28;20289;-73
2021/04/20 03:25:06;;;;;;;78.20;44.47;;;;;3.20;101240.00;;;;10460942;28;20221;-73
2021/04/20 03:30:09;;;;;;;85.87;46.53;;;;;3.20;101237.00;;;;10476867;28;20249;-73
2021/04/20 03:35:19;;;;;;;91.30;48.40;;;;;3.20;101245.00;;;;10478256;28;20649;-73
2021/04/20 03:40:22;;;;;;;91.53;49.80;;;;;3.20;101237.00;;;;10460671;28;20200;-73
2021/04/20 03:45:29;;;;;;;90.33;49.70;;;;;3.20;101233.00;;;;10442875;28;20197;-73
2021/04/20 03:50:37;;;;;;;74.37;41.73;;;;;3.10;101226.00;;;;10460219;28;20252;-73
2021/04/20 03:55:40;;;;;;;93.37;47.37;;;;;3.10;101225.00;;;;10444324;28;20946;-73
2021/04/20 04:00:43;;;;;;;89.60;47.77;;;;;3.10;101225.00;;;;10417476;28;20210;-73
2021/04/20 04:05:48;;;;;;;81.60;43.57;;;;;3.00;101229.00;;;;10471693;28;20213;-73
2021/04/20 04:10:56;;;;;;;112.40;52.23;;;;;2.90;101227.00;;;;10458356;28;20221;-73
2021/04/20 04:16:03;;;;;;;78.57;42.37;;;;;2.80;101221.00;;;;10457793;28;20205;-73
2021/04/20 04:21:08;;;;;;;79.73;42.47;;;;;2.60;101218.00;;;;10474828;28;20201;-73
2021/04/20 04:26:15;;;;;;;86.40;45.90;;;;;2.60;101217.00;;;;10475591;28;20197;-73
2021/04/20 04:31:17;;;;;;;82.83;45.17;;;;;2.50;101217.00;;;;10458695;28;20225;-73
2021/04/20 04:36:20;;;;;;;88.33;46.90;;;;;2.50;101214.00;;;;10450988;28;20229;-73
2021/04/20 04:41:22;;;;;;;106.00;53.63;;;;;2.50;101219.00;;;;10508938;28;20198;-73
2021/04/20 04:46:24;;;;;;;100.27;51.73;;;;;2.50;101235.00;;;;10490546;28;20256;-73
2021/04/20 04:51:31;;;;;;;96.53;46.53;;;;;2.60;101224.00;;;;10473969;28;20983;-73
2021/04/20 04:56:33;;;;;;;101.60;48.47;;;;;2.60;101223.00;;;;10449597;28;20206;-73
2021/04/20 05:01:40;;;;;;;92.10;45.53;;;;;2.60;101226.00;;;;10489683;28;20629;-73
2021/04/20 05:06:46;;;;;;;93.17;44.83;;;;;2.70;101227.00;;;;10473888;28;20202;-73
2021/04/20 05:11:50;;;;;;;87.90;45.90;;;;;2.80;101228.00;;;;10441456;28;20272;-73
2021/04/20 05:16:54;;;;;;;123.67;57.30;;;;;3.00;101233.00;;;;10480061;28;20604;-73
2021/04/20 05:21:56;;;;;;;184.23;62.07;;;;;3.20;101237.00;;;;10455606;28;20871;-73
2021/04/20 05:26:58;;;;;;;115.33;54.87;;;;;3.50;101240.00;;;;10491804;28;20963;-73
2021/04/20 05:31:59;;;;;;;123.67;58.47;;;;;3.80;101244.00;;;;10473409;28;20272;-73
2021/04/20 05:37:02;;;;;;;107.57;53.93;;;;;4.10;101252.00;;;;10442012;28;20190;-73
2021/04/20 05:42:04;;;;;;;117.83;55.73;;;;;4.30;101250.00;;;;10457443;28;20205;-73
2021/04/20 05:47:05;;;;;;;113.97;54.47;;;;;4.60;101250.00;;;;10439805;28;20197;-73
2021/04/20 05:52:06;;;;;;;119.97;57.70;;;;;4.90;101259.00;;;;10463162;28;20210;-73
2021/04/20 05:57:08;;;;;;;107.97;54.63;;;;;5.20;101259.00;;;;10495909;28;20243;-73
2021/04/20 06:02:13;;;;;;;97.27;54.50;;;;;5.50;101268.00;;;;10469142;28;20259;-73
2021/04/20 06:07:15;;;;;;;82.53;47.70;;;;;5.90;101280.00;;;;10433602;28;20227;-73
2021/04/20 06:12:16;;;;;;;66.97;41.43;;;;;6.20;101292.00;;;;10470516;28;20201;-73
2021/04/20 06:17:19;;;;;;;63.43;41.30;;;;;6.50;101302.00;;;;10443730;28;20248;-73
2021/04/20 06:22:21;;;;;;;62.67;41.77;;;;;6.80;101312.00;;;;10480894;28;20673;-73
2021/04/20 06:27:22;;;;;;;72.63;45.67;;;;;7.10;101308.00;;;;10492054;28;20194;-73
2021/04/20 06:32:25;;;;;;;67.90;45.80;;;;;7.50;101317.00;;;;10497263;28;20200;-73
2021/04/20 06:37:27;;;;;;;60.17;43.33;;;;;8.00;101326.00;;;;10495011;28;20288;-73
2021/04/20 06:42:31;;;;;;;50.60;37.70;;;;;8.30;101325.00;;;;10479077;28;20817;-73
2021/04/20 06:47:42;;;;;;;40.90;33.33;;;;;8.60;101329.00;;;;10488031;28;20256;-73
2021/04/20 06:53:00;;;;;;;40.90;35.23;;;;;8.90;101328.00;;;;10378505;28;20257;-73
2021/04/20 06:58:16;;;;;;;38.37;32.77;;;;;9.10;101331.00;;;;10488352;28;20209;-73
2021/04/20 07:03:36;;;;;;;49.23;37.67;;;;;9.60;101337.00;;;;10460608;28;20204;-73
2021/04/20 07:08:59;;;;;;;55.37;41.77;;;;;10.20;101326.00;;;;10485043;28;20220;-73
2021/04/20 07:14:04;;;;;;;49.20;39.30;;;;;10.80;101328.00;;;;10471950;28;20610;-73
2021/04/20 07:19:24;;;;;;;52.90;41.47;;;;;11.30;101335.00;;;;10496623;28;20239;-73
2021/04/20 07:24:41;;;;;;;54.83;41.73;;;;;11.90;101329.00;;;;10461832;28;20219;-73
2021/04/20 07:29:53;;;;;;;57.13;43.00;;;;;12.30;101322.00;;;;10485401;28;20218;-73
2021/04/20 07:35:09;;;;;;;56.07;43.83;;;;;12.70;101324.00;;;;10474719;28;20202;-73
2021/04/20 07:40:32;;;;;;;60.07;44.90;;;;;13.00;101333.00;;;;10516980;28;20251;-73
2021/04/20 07:45:52;;;;;;;56.40;43.87;;;;;13.30;101337.00;;;;10461714;28;20223;-73
2021/04/20 07:50:58;;;;;;;52.70;42.53;;;;;13.60;101339.00;;;;10510318;28;20290;-73
2021/04/20 07:56:09;;;;;;;53.47;43.97;;;;;14.10;101331.00;;;;10477937;28;20205;-73
2021/04/20 08:01:32;;;;;;;56.13;43.83;;;;;14.60;101343.00;;;;10508157;28;20889;-74
2021/04/20 08:06:37;;;;;;;55.40;44.17;;;;;15.00;101325.00;;;;10477477;28;20282;-73
2021/04/20 08:11:46;;;;;;;57.87;46.50;;;;;15.40;101311.00;;;;10467504;28;20630;-74
2021/04/20 08:17:03;;;;;;;65.87;50.90;;;;;15.80;101310.00;;;;10471493;28;20200;-73
2021/04/20 08:22:07;;;;;;;64.03;50.13;;;;;16.00;101309.00;;;;10473396;28;20277;-73
2021/04/20 08:27:28;;;;;;;62.10;50.10;;;;;16.50;101304.00;;;;10502165;28;20197;-73
2021/04/20 08:32:31;;;;;;;56.83;46.97;;;;;16.90;101292.00;;;;10445553;28;20224;-74
2021/04/20 08:38:10;;;;;;;57.20;46.10;;;;;17.20;101285.00;;;;10471101;28;20552;-73
2021/04/20 08:43:43;;;;;;;55.47;47.67;;;;;17.40;101275.00;;;;10461044;28;20280;-73
2021/04/20 08:49:21;;;;;;;54.28;45.65;;;;;17.80;101266.00;;;;10454830;28;20581;-74
2021/04/20 08:54:54;;;;;;;50.38;42.63;;;;;18.20;101267.00;;;;10459886;28;20259;-73
2021/04/20 09:00:21;;;;;;;51.63;43.25;;;;;18.20;101271.00;;;;10453345;28;20259;-74
2021/04/20 09:05:41;;;;;;;54.53;45.28;;;;;18.50;101275.00;;;;10481680;28;20216;-74
2021/04/20 09:10:55;;;;;;;51.15;40.03;;;;;19.00;101271.00;;;;10419983;28;20229;-72
2021/04/20 09:16:02;;;;;;;47.28;41.22;;;;;18.90;101274.00;;;;10452445;28;20248;-72
2021/04/20 09:21:27;;;;;;;51.35;43.33;;;;;19.30;101275.00;;;;10467594;28;20275;-74
2021/04/20 09:26:48;;;;;;;52.30;43.15;;;;;19.60;101269.00;;;;10436720;28;20197;-73
2021/04/20 09:31:58;;;;;;;55.63;44.95;;;;;19.90;101272.00;;;;10434801;28;20232;-74
2021/04/20 09:37:02;;;;;;;50.17;42.97;;;;;20.20;101266.00;;;;10451519;28;20649;-72
2021/04/20 09:42:05;;;;;;;48.70;41.83;;;;;20.60;101272.00;;;;10444522;28;20279;-72
2021/04/20 09:47:31;;;;;;;51.83;41.75;;;;;20.50;101271.00;;;;10470148;28;20251;-74
2021/04/20 09:53:04;;;;;;;50.35;39.47;;;;;20.40;101263.00;;;;10428914;28;20266;-72
2021/04/20 09:58:07;;;;;;;46.38;39.60;;;;;20.50;101268.00;;;;10454526;28;20197;-72
2021/04/20 10:03:17;;;;;;;42.47;37.22;;;;;20.50;101267.00;;;;10432786;28;20267;-72
2021/04/20 10:08:47;;;;;;;47.50;37.22;;;;;20.80;101261.00;;;;10471625;28;20248;-72
2021/04/20 10:14:00;;;;;;;43.63;38.03;;;;;20.90;101260.00;;;;10464908;28;20201;-72
2021/04/20 10:19:11;;;;;;;45.42;37.90;;;;;20.90;101258.00;;;;10439813;28;20233;-73
2021/04/20 10:24:23;;;;;;;43.35;37.85;;;;;20.90;101260.00;;;;10477138;28;20205;-73
2021/04/20 10:29:31;;;;;;;44.13;35.53;;;;;21.40;101251.00;;;;10464978;28;20320;-74
2021/04/20 10:34:34;;;;;;;40.10;34.35;;;;;21.60;101243.00;;;;10460653;28;20193;-73
2021/04/20 10:39:37;;;;;;;39.92;33.30;;;;;21.90;101248.00;;;;10514653;28;20207;-73
2021/04/20 10:44:40;;;;;;;39.90;31.85;;;;;22.20;101239.00;;;;10486928;28;20195;-73
2021/04/20 10:49:52;;;;;;;40.88;35.25;;;;;22.50;101237.00;;;;10493567;28;20204;-73
2021/04/20 10:55:00;;;;;;;40.70;32.53;;;;;22.50;101227.00;;;;10472224;28;20197;-73
2021/04/20 11:00:04;;;;;;;39.55;33.03;;;;;22.80;101218.00;;;;10422717;28;20685;-73
2021/04/20 11:05:08;;;;;;;41.35;33.90;;;;;23.40;101220.00;;;;10445751;28;20271;-73
2021/04/20 11:10:12;;;;;;;37.83;30.42;;;;;23.90;101204.00;;;;10452169;28;20276;-73
2021/04/20 11:15:20;;;;;;;39.47;31.77;;;;;23.70;101201.00;;;;10495611;28;20300;-73
2021/04/20 11:20:42;;;;;;;36.33;30.35;;;;;24.00;101213.00;;;;10453410;28;20209;-73
2021/04/20 11:25:50;;;;;;;37.35;30.90;;;;;24.60;101202.00;;;;10433211;28;20208;-73
2021/04/20 11:30:58;;;;;;;34.17;28.20;;;;;24.80;101206.00;;;;10477293;28;20222;-73
2021/04/20 11:36:04;;;;;;;32.50;28.98;;;;;25.20;101199.00;;;;10499047;28;20229;-74
2021/04/20 11:41:07;;;;;;;30.40;27.10;;;;;25.60;101206.00;;;;10508093;28;20260;-73
2021/04/20 11:46:16;;;;;;;27.65;24.65;;;;;25.40;101197.00;;;;10455576;28;20289;-74
2021/04/20 11:51:18;;;;;;;31.73;26.92;;;;;25.00;101197.00;;;;10445047;28;20217;-74
2021/04/20 11:56:19;;;;;;;29.90;24.35;;;;;25.20;101187.00;;;;10463893;28;20197;-74
2021/04/20 12:01:22;;;;;;;31.17;25.23;;;;;25.40;101184.00;;;;10442995;28;20971;-74
2021/04/20 12:06:24;;;;;;;27.95;24.92;;;;;25.40;101188.00;;;;10491292;28;20308;-74
2021/04/20 12:11:30;;;;;;;28.42;25.33;;;;;25.60;101179.00;;;;10447902;28;20217;-74
2021/04/20 12:16:33;;;;;;;25.58;22.92;;;;;25.80;101174.00;;;;10483223;28;20205;-73
2021/04/20 12:21:39;;;;;;;31.77;25.55;;;;;26.10;101171.00;;;;10473156;28;20564;-74
2021/04/20 12:26:42;;;;;;;28.10;24.23;;;;;26.30;101170.00;;;;10474428;28;20212;-73
2021/04/20 12:31:43;;;;;;;26.05;23.25;;;;;25.50;101166.00;;;;10461552;28;20220;-74
2021/04/20 12:36:51;;;;;;;26.95;22.17;;;;;25.90;101163.00;;;;10483582;28;20205;-73
2021/04/20 12:41:54;;;;;;;26.95;24.00;;;;;26.30;101164.00;;;;10440600;28;20228;-73
2021/04/20 12:46:56;;;;;;;29.38;23.90;;;;;27.00;101161.00;;;;10458635;28;20851;-73
2021/04/20 12:52:03;;;;;;;26.98;23.45;;;;;27.60;101160.00;;;;10461965;28;20217;-73
2021/04/20 12:57:09;;;;;;;27.25;24.20;;;;;27.90;101156.00;;;;10454428;28;20198;-73
2021/04/20 13:02:11;;;;;;;28.23;24.70;;;;;27.20;101156.00;;;;10475207;28;20204;-73
2021/04/20 13:07:13;;;;;;;29.83;24.42;;;;;26.80;101147.00;;;;10449667;28;20225;-73
2021/04/20 13:12:21;;;;;;;33.00;24.23;;;;;27.10;101151.00;;;;10468629;28;20668;-72
2021/04/20 13:17:24;;;;;;;25.10;22.30;;;;;26.80;101141.00;;;;10467418;28;20675;-73
2021/04/20 13:22:27;;;;;;;27.25;23.17;;;;;25.80;101142.00;;;;10428311;28;20221;-73
2021/04/20 13:27:44;;;;;;;26.88;23.38;;;;;24.00;101148.00;;;;10481188;28;20229;-73
2021/04/20 13:32:49;;;;;;;31.73;23.13;;;;;23.20;101139.00;;;;10435728;28;20222;-73
2021/04/20 13:37:54;;;;;;;28.05;22.05;;;;;22.70;101128.00;;;;10423644;28;20552;-72
2021/04/20 13:43:00;;;;;;;28.88;25.08;;;;;23.40;101125.00;;;;10496315;28;20659;-73
2021/04/20 13:48:03;;;;;;;27.77;24.17;;;;;24.20;101128.00;;;;10494701;28;20209;-73
2021/04/20 13:53:22;;;;;;;28.33;22.98;;;;;25.40;101101.00;;;;10479625;28;20194;-73
2021/04/20 13:58:29;;;;;;;27.33;23.33;;;;;26.00;101100.00;;;;10484257;28;20213;-72
2021/04/20 14:03:41;;;;;;;29.63;24.60;;;;;25.80;101112.00;;;;10505118;28;20209;-72
2021/04/20 14:09:13;;;;;;;28.48;22.52;;;;;24.30;101101.00;;;;10467615;28;20764;-73
2021/04/20 14:14:28;;;;;;;30.48;22.30;;;;;26.50;101087.00;;;;10463674;28;20205;-72
2021/04/20 14:19:30;;;;;;;26.08;22.55;;;;;28.10;101078.00;;;;10465266;28;20217;-73
2021/04/20 14:24:33;;;;;;;25.90;22.38;;;;;29.20;101079.00;;;;10457434;28;20193;-73
2021/04/20 14:29:37;;;;;;;33.25;23.92;;;;;25.70;101085.00;;;;10446715;28;20221;-74
2021/04/20 14:34:40;;;;;;;27.75;22.02;;;;;28.50;101066.00;;;;10447744;28;20939;-72
2021/04/20 14:39:41;;;;;;;25.45;21.40;;;;;30.20;101065.00;;;;10475754;28;20201;-72
2021/04/20 14:44:44;;;;;;;24.50;21.88;;;;;29.50;101063.00;;;;10478518;28;20264;-73
2021/04/20 14:49:52;;;;;;;28.45;23.33;;;;;25.20;101079.00;;;;10490665;28;20213;-72
2021/04/20 14:54:56;;;;;;;26.60;21.42;;;;;24.00;101063.00;;;;10444729;28;20214;-73
2021/04/20 14:59:59;;;;;;;30.55;22.45;;;;;23.80;101068.00;;;;10453048;28;20760;-73
2021/04/20 15:05:01;;;;;;;26.20;22.33;;;;;27.70;101068.00;;;;10487898;28;20231;-73
2021/04/20 15:10:09;;;;;;;22.58;20.05;;;;;26.00;101048.00;;;;10480998;28;20213;-73
2021/04/20 15:15:15;;;;;;;25.52;20.65;;;;;25.80;101067.00;;;;10438003;28;20236;-73
2021/04/20 15:20:19;;;;;;;23.70;21.13;;;;;23.40;101062.00;;;;10483059;28;20656;-74
2021/04/20 15:25:25;;;;;;;26.80;22.50;;;;;23.10;101063.00;;;;10438371;28;20209;-73
2021/04/20 15:30:37;;;;;;;24.13;19.73;;;;;22.00;101059.00;;;;10471781;28;20823;-73
2021/04/20 15:35:52;;;;;;;24.45;19.10;;;;;21.80;101060.00;;;;10469364;28;20758;-71
2021/04/20 15:40:55;;;;;;;22.77;18.10;;;;;22.10;101057.00;;;;10425615;28;20810;-72
2021/04/20 15:45:59;;;;;;;23.35;18.45;;;;;23.50;101049.00;;;;10467576;28;20194;-72
2021/04/20 15:51:03;;;;;;;20.17;17.63;;;;;23.80;101061.00;;;;10445159;28;20278;-72
2021/04/20 15:56:13;;;;;;;21.00;15.85;;;;;22.40;101054.00;;;;10463994;28;20205;-72
2021/04/20 16:01:15;;;;;;;20.05;15.65;;;;;21.60;101061.00;;;;10446738;28;20215;-72
2021/04/20 16:06:17;;;;;;;19.13;16.67;;;;;21.80;101062.00;;;;10428584;28;20232;-72
2021/04/20 16:11:22;;;;;;;16.98;14.85;;;;;22.00;101054.00;;;;10462378;28;20226;-72
2021/04/20 16:16:26;;;;;;;19.70;15.55;;;;;21.60;101048.00;;;;10447896;28;20277;-72
2021/04/20 16:21:34;;;;;;;25.85;17.00;;;;;21.00;101056.00;;;;10467827;28;20730;-72
2021/04/20 16:26:37;;;;;;;19.05;16.10;;;;;20.70;101057.00;;;;10451341;28;20231;-72
2021/04/20 16:31:42;;;;;;;20.88;15.10;;;;;20.60;101051.00;;;;10473128;28;20592;-72
2021/04/20 16:36:44;;;;;;;18.25;12.38;;;;;20.40;101056.00;;;;10449815;28;20292;-72
2021/04/20 16:42:35;;;;;;;19.00;12.50;;;;;20.10;101060.00;;;;10484582;28;20588;-72
2021/04/20 16:47:44;;;;;;;16.02;12.05;;;;;19.80;101051.00;;;;10445940;28;20206;-72
2021/04/20 16:53:10;;;;;;;14.35;10.50;;;;;19.50;101055.00;;;;10484313;28;20224;-73
2021/04/20 16:58:24;;;;;;;14.90;11.35;;;;;19.20;101057.00;;;;10457983;28;20209;-73
2021/04/20 17:03:36;;;;;;;18.90;14.40;;;;;19.10;101052.00;;;;10443646;28;20205;-73
2021/04/20 17:08:56;;;;;;;20.23;14.35;;;;;19.00;101051.00;;;;10432006;28;20229;-73
2021/04/20 17:14:05;;;;;;;18.30;12.82;;;;;18.90;101045.00;;;;10435337;28;20624;-73
2021/04/20 17:19:33;;;;;;;20.00;13.27;;;;;18.60;101044.00;;;;10438066;28;20289;-73
2021/04/20 17:24:51;;;;;;;18.40;13.10;;;;;18.30;101043.00;;;;10453541;28;20653;-72
2021/04/20 17:30:25;;;;;;;18.73;13.75;;;;;18.00;101045.00;;;;10481918;28;20275;-72
2021/04/20 17:35:48;;;;;;;23.02;14.80;;;;;17.70;101040.00;;;;10407724;28;20229;-73
2021/04/20 17:40:55;;;;;;;22.65;14.40;;;;;17.50;101042.00;;;;10479408;28;20193;-72
2021/04/20 17:46:15;;;;;;;23.75;14.80;;;;;17.30;101051.00;;;;10492583;28;20250;-74
2021/04/20 17:51:51;;;;;;;26.87;16.47;;;;;17.00;101050.00;;;;10508503;28;20212;-72
2021/04/20 17:57:23;;;;;;;24.90;17.47;;;;;16.80;101045.00;;;;10430287;28;20232;-73
2021/04/20 18:02:50;;;;;;;25.73;16.57;;;;;16.50;101052.00;;;;10483975;28;20189;-73
2021/04/20 18:08:22;;;;;;;23.53;18.23;;;;;16.20;101057.00;;;;10466039;28;20217;-72
2021/04/20 18:13:52;;;;;;;27.50;17.87;;;;;16.00;101055.00;;;;10448453;28;20212;-73
2021/04/20 18:19:05;;;;;;;28.37;18.37;;;;;15.70;101059.00;;;;10468206;28;20190;-73
2021/04/20 18:24:27;;;;;;;28.10;18.03;;;;;15.50;101071.00;;;;10423710;28;20237;-73
2021/04/20 18:29:48;;;;;;;27.37;17.97;;;;;15.10;101075.00;;;;10422661;28;20232;-72
2021/04/20 18:35:01;;;;;;;27.93;17.17;;;;;14.80;101074.00;;;;10476047;28;20325;-72
2021/04/20 18:40:03;;;;;;;25.40;18.03;;;;;14.50;101072.00;;;;10462599;28;20209;-72
2021/04/20 18:45:19;;;;;;;30.60;19.53;;;;;14.30;101092.00;;;;10471349;28;20557;-73
2021/04/20 18:50:24;;;;;;;32.70;21.50;;;;;14.10;101090.00;;;;10466661;28;20227;-73
2021/04/20 18:55:57;;;;;;;29.73;20.77;;;;;13.90;101106.00;;;;10470571;28;20203;-73
2021/04/20 19:01:16;;;;;;;31.77;22.73;;;;;13.60;101107.00;;;;10443353;28;20257;-73
2021/04/20 19:06:30;;;;;;;35.47;26.27;;;;;13.40;101114.00;;;;10465677;28;20236;-73
2021/04/20 19:11:42;;;;;;;41.77;29.20;;;;;13.40;101124.00;;;;10438931;28;20240;-73
2021/04/20 19:17:06;;;;;;;44.97;33.43;;;;;13.30;101115.00;;;;10442959;28;20202;-73
2021/04/20 19:22:09;;;;;;;46.27;33.67;;;;;13.30;101125.00;;;;10425321;28;20201;-73
2021/04/20 19:27:19;;;;;;;49.47;35.33;;;;;13.20;101121.00;;;;10457143;28;20202;-73
2021/04/20 19:32:39;;;;;;;47.60;33.80;;;;;13.00;101125.00;;;;10441115;28;20293;-73
2021/04/20 19:38:12;;;;;;;49.80;35.03;;;;;12.80;101122.00;;;;10478009;28;20193;-73
2021/04/20 19:43:29;;;;;;;46.63;32.97;;;;;12.50;101132.00;;;;10443687;28;20228;-73
2021/04/20 19:48:37;;;;;;;55.60;37.00;;;;;12.30;101128.00;;;;10453403;28;20248;-73
2021/04/20 19:53:42;;;;;;;54.70;39.83;;;;;12.20;101131.00;;;;10474991;28;20766;-73
2021/04/20 19:59:03;;;;;;;59.27;40.30;;;;;12.20;101132.00;;;;10442239;28;20198;-73
2021/04/20 20:04:11;;;;;;;59.17;39.27;;;;;12.10;101125.00;;;;10437925;28;20201;-73
2021/04/20 20:09:21;;;;;;;58.50;40.47;;;;;12.10;101134.00;;;;10437080;28;20818;-73
2021/04/20 20:14:24;;;;;;;66.50;42.67;;;;;12.00;101133.00;;;;10450048;28;20198;-73
2021/04/20 20:19:25;;;;;;;59.10;41.53;;;;;11.80;101127.00;;;;10478376;28;20198;-73
2021/04/20 20:24:30;;;;;;;65.37;44.47;;;;;11.60;101131.00;;;;10468880;28;20201;-73
2021/04/20 20:29:42;;;;;;;63.73;43.77;;;;;11.40;101144.00;;;;10449947;28;20213;-73
2021/04/20 20:34:45;;;;;;;64.60;43.83;;;;;11.30;101142.00;;;;10459381;28;20253;-74
2021/04/20 20:39:50;;;;;;;68.57;44.90;;;;;11.10;101140.00;;;;10482058;28;20573;-73
2021/04/20 20:45:00;;;;;;;66.40;45.10;;;;;10.90;101134.00;;;;10472658;28;20221;-73
2021/04/20 20:50:05;;;;;;;70.97;45.40;;;;;10.80;101140.00;;;;10479657;28;20209;-73
2021/04/20 20:55:07;;;;;;;67.63;46.53;;;;;10.70;101136.00;;;;10487710;28;20194;-73
2021/04/20 21:00:15;;;;;;;73.23;45.33;;;;;10.60;101138.00;;;;10409116;28;20208;-73
2021/04/20 21:05:21;;;;;;;74.93;46.63;;;;;10.50;101144.00;;;;10467687;28;20708;-73
2021/04/20 21:10:32;;;;;;;75.40;47.90;;;;;10.40;101146.00;;;;10488434;28;20217;-73
2021/04/20 21:15:39;;;;;;;76.93;47.23;;;;;10.20;101148.00;;;;10442561;28;20763;-74
2021/04/20 21:20:46;;;;;;;80.03;47.13;;;;;10.10;101150.00;;;;10467971;28;20221;-73
2021/04/20 21:25:49;;;;;;;77.13;46.10;;;;;10.00;101151.00;;;;10458664;28;20679;-73
2021/04/20 21:30:55;;;;;;;75.50;46.80;;;;;10.00;101148.00;;;;10471482;28;20245;-73
2021/04/20 21:35:57;;;;;;;75.83;45.77;;;;;9.90;101144.00;;;;10452130;28;20201;-73
2021/04/20 21:41:09;;;;;;;76.77;45.83;;;;;9.80;101156.00;;;;10450042;28;20224;-73
2021/04/20 21:46:13;;;;;;;77.93;46.60;;;;;9.80;101146.00;;;;10471434;28;20208;-73
2021/04/20 21:51:17;;;;;;;79.33;46.00;;;;;9.70;101153.00;;;;10445849;28;20695;-73
2021/04/20 21:56:22;;;;;;;75.60;46.83;;;;;9.60;101152.00;;;;10476496;28;20229;-74
2021/04/20 22:01:30;;;;;;;79.87;47.10;;;;;9.50;101158.00;;;;10472981;28;20256;-73
2021/04/20 22:06:35;;;;;;;74.50;46.67;;;;;9.40;101158.00;;;;10475152;28;20716;-73
2021/04/20 22:12:01;;;;;;;75.27;46.03;;;;;9.30;101156.00;;;;10481587;28;20258;-73
2021/04/20 22:17:07;;;;;;;87.13;47.63;;;;;9.20;101164.00;;;;10505433;28;20296;-73
2021/04/20 22:22:08;;;;;;;81.57;46.07;;;;;9.20;101169.00;;;;10475545;28;20284;-73
2021/04/20 22:27:10;;;;;;;81.80;47.63;;;;;9.00;101164.00;;;;10453259;28;20221;-74
2021/04/20 22:32:20;;;;;;;80.10;46.33;;;;;9.00;101170.00;;;;10480397;28;20287;-74
2021/04/20 22:37:30;;;;;;;86.03;49.20;;;;;8.90;101164.00;;;;10497520;28;20201;-74
2021/04/20 22:42:35;;;;;;;78.90;46.27;;;;;8.90;101172.00;;;;10479855;28;20201;-74
2021/04/20 22:47:43;;;;;;;83.27;49.63;;;;;8.80;101179.00;;;;10463296;28;20205;-74
2021/04/20 22:52:54;;;;;;;90.23;50.20;;;;;8.70;101177.00;;;;10462676;28;20252;-74
2021/04/20 22:58:07;;;;;;;87.83;49.83;;;;;8.70;101191.00;;;;10446040;28;20849;-74
2021/04/20 23:03:11;;;;;;;87.90;51.43;;;;;8.60;101180.00;;;;10479265;28;20201;-74
2021/04/20 23:08:19;;;;;;;86.73;49.90;;;;;8.50;101187.00;;;;10478576;28;20308;-74
2021/04/20 23:13:24;;;;;;;89.30;50.50;;;;;8.50;101190.00;;;;10460339;28;20895;-74
2021/04/20 23:18:29;;;;;;;91.97;52.10;;;;;8.40;101190.00;;;;10478896;28;20197;-74
2021/04/20 23:24:08;;;;;;;88.07;50.43;;;;;8.30;101185.00;;;;10462286;28;20221;-74
2021/04/20 23:29:28;;;;;;;92.20;50.73;;;;;8.20;101184.00;;;;10477710;28;20213;-74
2021/04/20 23:34:34;;;;;;;87.77;49.03;;;;;8.10;101185.00;;;;10477746;28;20201;-74
2021/04/20 23:39:44;;;;;;;99.40;51.40;;;;;8.00;101178.00;;;;10480623;28;20717;-74
2021/04/20 23:44:49;;;;;;;98.13;52.27;;;;;8.00;101186.00;;;;10518872;28;20254;-74
2021/04/20 23:49:55;;;;;;;93.47;52.90;;;;;8.00;101185.00;;;;10501409;28;20204;-73
2021/04/20 23:54:57;;;;;;;96.47;52.50;;;;;7.90;101183.00;;;;10518010;28;20297;-73
2021/04/20 23:59:58;;;;;;;101.70;55.03;;;;;7.90;101174.00;;;;10476851;28;20193;-74
